PWSweather.com
Personal Weather Stations
Station Observations

Acton, CA 93510

Lat: 34.47703, Lon: -118.17483

Elevation: 2900

Station Type: Davis Vantage Pro 2

http://www.actonastro.com/weather/current.php

Latest ConditionsUpdated 8:59:54 PM PDT Thursday, Sep 18, 2014
Currently Today's Max Today's Min Today's Average
Temperature 66.3°F19.1°C 81.2°F27.3°C 58.3°F14.6°C 71.2°F21.8°C
Dew Point 53.3°F11.8°C 55.3°F12.9°C 42.9°F6.1°C 48.9°F9.4°C
Winds 2.0 mph W3.2 kmh W 18.0 mph SSW29.0 kmh SSW - 4.4 mph 7.1 kmh
Wind Gusts 11.0 mph17.7 kmh 24.0 mph38.6 kmh - -
Humidity 63% 65% 31% 46%
Pressure 29.68 in1005.1 mb 29.68 in1005.1 mb 29.58 in1001.7 mb -
Hour Temp Dew Point Humidity Winds Wind Gusts Pressure Precip Precip Rate Daily Precip Total
08:59 PM 66.3°F19.1°C 53.3°F11.8°C 63% 2.0 mph W3.2 kmh W 11.0 mph17.7 kmh 29.68 in1005.1 mb 0.00 in0.0 mm 0.00 in/hr0.0 mm/hr 0.00 in0.0 mm
08:54 PM 66.4°F19.1°C 53.0°F11.7°C 62% 3.0 mph NW4.8 kmh NW 11.0 mph17.7 kmh 29.66 in1004.4 mb 0.00 in0.0 mm 0.00 in/hr0.0 mm/hr 0.00 in0.0 mm
08:49 PM 66.6°F19.2°C 53.2°F11.8°C 62% 6.0 mph NW9.7 kmh NW 11.0 mph17.7 kmh 29.66 in1004.4 mb 0.00 in0.0 mm 0.00 in/hr0.0 mm/hr 0.00 in0.0 mm
08:44 PM 66.8°F19.3°C 53.4°F11.9°C 62% 2.0 mph W3.2 kmh W 11.0 mph17.7 kmh 29.66 in1004.4 mb 0.00 in0.0 mm 0.00 in/hr0.0 mm/hr 0.00 in0.0 mm
08:39 PM 66.9°F19.4°C 53.4°F11.9°C 62% 10.0 mph NW16.1 kmh NW 11.0 mph17.7 kmh 29.66 in1004.4 mb 0.00 in0.0 mm 0.00 in/hr0.0 mm/hr 0.00 in0.0 mm
08:34 PM 67.1°F19.5°C 53.6°F12.0°C 62% 3.0 mph NW4.8 kmh NW 11.0 mph17.7 kmh 29.66 in1004.4 mb 0.00 in0.0 mm 0.00 in/hr0.0 mm/hr 0.00 in0.0 mm
08:29 PM 67.3°F19.6°C 53.8°F12.1°C 62% 7.0 mph NW11.3 kmh NW 12.0 mph19.3 kmh 29.66 in1004.4 mb 0.00 in0.0 mm 0.00 in/hr0.0 mm/hr 0.00 in0.0 mm
08:24 PM 67.4°F19.7°C 53.9°F12.2°C 62% 4.0 mph NW6.4 kmh NW 12.0 mph19.3 kmh 29.66 in1004.4 mb 0.00 in0.0 mm 0.00 in/hr0.0 mm/hr 0.00 in0.0 mm
08:19 PM 67.6°F19.8°C 54.1°F12.3°C 62% 4.0 mph WSW6.4 kmh WSW 12.0 mph19.3 kmh 29.66 in1004.4 mb 0.00 in0.0 mm 0.00 in/hr0.0 mm/hr 0.00 in0.0 mm
08:14 PM 67.9°F19.9°C 53.9°F12.2°C 61% 11.0 mph WNW17.7 kmh WNW 12.0 mph19.3 kmh 29.66 in1004.4 mb 0.00 in0.0 mm 0.00 in/hr0.0 mm/hr 0.00 in0.0 mm
08:09 PM 68.1°F20.1°C 53.7°F12.1°C 60% 4.0 mph WSW6.4 kmh WSW 12.0 mph19.3 kmh 29.67 in1004.7 mb 0.00 in0.0 mm 0.00 in/hr0.0 mm/hr 0.00 in0.0 mm
08:04 PM 68.3°F20.2°C 53.9°F12.2°C 60% 7.0 mph NW11.3 kmh NW 12.0 mph19.3 kmh 29.67 in1004.7 mb 0.00 in0.0 mm 0.00 in/hr0.0 mm/hr 0.00 in0.0 mm
07:59 PM 68.6°F20.3°C 54.1°F12.3°C 60% 9.0 mph NW14.5 kmh NW 13.0 mph20.9 kmh 29.67 in1004.7 mb 0.00 in0.0 mm 0.00 in/hr0.0 mm/hr 0.00 in0.0 mm
07:54 PM 69.1°F20.6°C 55.1°F12.8°C 61% 2.0 mph NW3.2 kmh NW 13.0 mph20.9 kmh 29.66 in1004.4 mb 0.00 in0.0 mm 0.00 in/hr0.0 mm/hr 0.00 in0.0 mm
07:49 PM 69.3°F20.7°C 54.8°F12.7°C 60% 3.0 mph NW4.8 kmh NW 15.0 mph24.1 kmh 29.66 in1004.4 mb 0.00 in0.0 mm 0.00 in/hr0.0 mm/hr 0.00 in0.0 mm
07:44 PM 69.4°F20.8°C 54.9°F12.7°C 60% 4.0 mph NW6.4 kmh NW 15.0 mph24.1 kmh 29.66 in1004.4 mb 0.00 in0.0 mm 0.00 in/hr0.0 mm/hr 0.00 in0.0 mm
07:39 PM 69.6°F20.9°C 54.2°F12.3°C 58% 5.0 mph NW8.0 kmh NW 15.0 mph24.1 kmh 29.65 in1004.1 mb 0.00 in0.0 mm 0.00 in/hr0.0 mm/hr 0.00 in0.0 mm
07:34 PM 69.9°F21.1°C 54.4°F12.4°C 58% 6.0 mph WNW9.7 kmh WNW 15.0 mph24.1 kmh 29.65 in1004.1 mb 0.00 in0.0 mm 0.00 in/hr0.0 mm/hr 0.00 in0.0 mm
07:29 PM 70.3°F21.3°C 55.3°F12.9°C 59% 11.0 mph W17.7 kmh W 16.0 mph25.7 kmh 29.65 in1004.1 mb 0.00 in0.0 mm 0.00 in/hr0.0 mm/hr 0.00 in0.0 mm
07:24 PM 70.6°F21.4°C 55.1°F12.8°C 58% 9.0 mph NW14.5 kmh NW 16.0 mph25.7 kmh 29.64 in1003.7 mb 0.00 in0.0 mm 0.00 in/hr0.0 mm/hr 0.00 in0.0 mm
07:19 PM 70.9°F21.6°C 54.9°F12.7°C 57% 10.0 mph NW16.1 kmh NW 16.0 mph25.7 kmh 29.64 in1003.7 mb 0.00 in0.0 mm 0.00 in/hr0.0 mm/hr 0.00 in0.0 mm
07:14 PM 71.3°F21.8°C 55.3°F12.9°C 57% 11.0 mph WSW17.7 kmh WSW 16.0 mph25.7 kmh 29.64 in1003.7 mb 0.00 in0.0 mm 0.00 in/hr0.0 mm/hr 0.00 in0.0 mm
07:09 PM 71.5°F21.9°C 55.0°F12.8°C 56% 11.0 mph WNW17.7 kmh WNW 14.0 mph22.5 kmh 29.66 in1004.4 mb 0.00 in0.0 mm 0.00 in/hr0.0 mm/hr 0.00 in0.0 mm
07:04 PM 71.8°F22.1°C 54.7°F12.6°C 55% 4.0 mph NW6.4 kmh NW 11.0 mph17.7 kmh 29.66 in1004.4 mb 0.00 in0.0 mm 0.00 in/hr0.0 mm/hr 0.00 in0.0 mm
06:59 PM 72.0°F22.2°C 53.9°F12.2°C 53% 4.0 mph NW6.4 kmh NW 13.0 mph20.9 kmh 29.66 in1004.4 mb 0.00 in0.0 mm 0.00 in/hr0.0 mm/hr 0.00 in0.0 mm
06:54 PM 72.1°F22.3°C 54.0°F12.2°C 53% 7.0 mph WNW11.3 kmh WNW 13.0 mph20.9 kmh 29.66 in1004.4 mb 0.00 in0.0 mm 0.00 in/hr0.0 mm/hr 0.00 in0.0 mm
06:49 PM 72.5°F22.5°C 53.9°F12.2°C 52% 7.0 mph WSW11.3 kmh WSW 13.0 mph20.9 kmh 29.66 in1004.4 mb 0.00 in0.0 mm 0.00 in/hr0.0 mm/hr 0.00 in0.0 mm
06:44 PM 72.7°F22.6°C 53.5°F11.9°C 51% 12.0 mph WSW19.3 kmh WSW 13.0 mph20.9 kmh 29.66 in1004.4 mb 0.00 in0.0 mm 0.00 in/hr0.0 mm/hr 0.00 in0.0 mm
06:39 PM 73.0°F22.8°C 53.8°F12.1°C 51% 9.0 mph NW14.5 kmh NW 12.0 mph19.3 kmh 29.65 in1004.1 mb 0.00 in0.0 mm 0.00 in/hr0.0 mm/hr 0.00 in0.0 mm
06:34 PM 73.2°F22.9°C 54.0°F12.2°C 51% 4.0 mph WNW6.4 kmh WNW 12.0 mph19.3 kmh 29.65 in1004.1 mb 0.00 in0.0 mm 0.00 in/hr0.0 mm/hr 0.00 in0.0 mm
06:29 PM 73.3°F22.9°C 53.5°F11.9°C 50% 5.0 mph NW8.0 kmh NW 14.0 mph22.5 kmh 29.65 in1004.1 mb 0.00 in0.0 mm 0.00 in/hr0.0 mm/hr 0.00 in0.0 mm
06:24 PM 73.5°F23.1°C 53.7°F12.1°C 50% 7.0 mph NW11.3 kmh NW 14.0 mph22.5 kmh 29.64 in1003.7 mb 0.00 in0.0 mm 0.00 in/hr0.0 mm/hr 0.00 in0.0 mm
06:19 PM 74.0°F23.3°C 53.6°F12.0°C 49% 9.0 mph W14.5 kmh W 14.0 mph22.5 kmh 29.64 in1003.7 mb 0.00 in0.0 mm 0.00 in/hr0.0 mm/hr 0.00 in0.0 mm
06:14 PM 74.4°F23.6°C 53.4°F11.9°C 48% 5.0 mph WNW8.0 kmh WNW 14.0 mph22.5 kmh 29.64 in1003.7 mb 0.00 in0.0 mm 0.00 in/hr0.0 mm/hr 0.00 in0.0 mm
06:09 PM 74.9°F23.8°C 53.3°F11.8°C 47% 6.0 mph SW9.7 kmh SW 14.0 mph22.5 kmh 29.63 in1003.4 mb 0.00 in0.0 mm 0.00 in/hr0.0 mm/hr 0.00 in0.0 mm
06:04 PM 75.6°F24.2°C 53.3°F11.8°C 46% 7.0 mph NW11.3 kmh NW 14.0 mph22.5 kmh 29.63 in1003.4 mb 0.00 in0.0 mm 0.00 in/hr0.0 mm/hr 0.00 in0.0 mm
05:59 PM 76.1°F24.5°C 52.6°F11.4°C 44% 10.0 mph SW16.1 kmh SW 13.0 mph20.9 kmh 29.63 in1003.4 mb 0.00 in0.0 mm 0.00 in/hr0.0 mm/hr 0.00 in0.0 mm
05:54 PM 76.7°F24.8°C 51.9°F11.1°C 42% 9.0 mph WNW14.5 kmh WNW 12.0 mph19.3 kmh 29.63 in1003.4 mb 0.00 in0.0 mm 0.00 in/hr0.0 mm/hr 0.00 in0.0 mm
05:49 PM 76.8°F24.9°C 51.9°F11.1°C 42% 1.0 mph WSW1.6 kmh WSW 15.0 mph24.1 kmh 29.63 in1003.4 mb 0.00 in0.0 mm 0.00 in/hr0.0 mm/hr 0.00 in0.0 mm
05:44 PM 77.2°F25.1°C 51.7°F10.9°C 41% 4.0 mph WSW6.4 kmh WSW 15.0 mph24.1 kmh 29.63 in1003.4 mb 0.00 in0.0 mm 0.00 in/hr0.0 mm/hr 0.00 in0.0 mm
05:39 PM 77.7°F25.4°C 52.1°F11.2°C 41% 11.0 mph W17.7 kmh W 20.0 mph32.2 kmh 29.62 in1003.0 mb 0.00 in0.0 mm 0.00 in/hr0.0 mm/hr 0.00 in0.0 mm
05:34 PM 77.7°F25.4°C 50.7°F10.4°C 39% 4.0 mph WSW6.4 kmh WSW 20.0 mph32.2 kmh 29.62 in1003.0 mb 0.00 in0.0 mm 0.00 in/hr0.0 mm/hr 0.00 in0.0 mm
05:29 PM 77.7°F25.4°C 50.7°F10.4°C 39% 4.0 mph SW6.4 kmh SW 20.0 mph32.2 kmh 29.62 in1003.0 mb 0.00 in0.0 mm 0.00 in/hr0.0 mm/hr 0.00 in0.0 mm
05:24 PM 77.9°F25.5°C 50.2°F10.1°C 38% 11.0 mph W17.7 kmh W 20.0 mph32.2 kmh 29.61 in1002.7 mb 0.00 in0.0 mm 0.00 in/hr0.0 mm/hr 0.00 in0.0 mm
05:19 PM 78.1°F25.6°C 51.1°F10.6°C 39% 2.0 mph NW3.2 kmh NW 19.0 mph30.6 kmh 29.61 in1002.7 mb 0.00 in0.0 mm 0.00 in/hr0.0 mm/hr 0.00 in0.0 mm
05:14 PM 77.9°F25.5°C 51.6°F10.9°C 40% 5.0 mph W8.0 kmh W 19.0 mph30.6 kmh 29.61 in1002.7 mb 0.00 in0.0 mm 0.00 in/hr0.0 mm/hr 0.00 in0.0 mm
05:09 PM 78.1°F25.6°C 51.1°F10.6°C 39% 13.0 mph WSW20.9 kmh WSW 19.0 mph30.6 kmh 29.60 in1002.4 mb 0.00 in0.0 mm 0.00 in/hr0.0 mm/hr 0.00 in0.0 mm
05:04 PM 78.3°F25.7°C 52.0°F11.1°C 40% 13.0 mph WSW20.9 kmh WSW 19.0 mph30.6 kmh 29.60 in1002.4 mb 0.00 in0.0 mm 0.00 in/hr0.0 mm/hr 0.00 in0.0 mm
04:59 PM 78.6°F25.9°C 51.5°F10.8°C 39% 2.0 mph SW3.2 kmh SW 18.0 mph29.0 kmh 29.60 in1002.4 mb 0.00 in0.0 mm 0.00 in/hr0.0 mm/hr 0.00 in0.0 mm
04:54 PM 78.8°F26.0°C 50.3°F10.2°C 37% 6.0 mph WNW9.7 kmh WNW 15.0 mph24.1 kmh 29.60 in1002.4 mb 0.00 in0.0 mm 0.00 in/hr0.0 mm/hr 0.00 in0.0 mm
04:49 PM 79.0°F26.1°C 49.7°F9.8°C 36% 11.0 mph SW17.7 kmh SW 15.0 mph24.1 kmh 29.60 in1002.4 mb 0.00 in0.0 mm 0.00 in/hr0.0 mm/hr 0.00 in0.0 mm
04:44 PM 79.2°F26.2°C 49.2°F9.6°C 35% 9.0 mph SW14.5 kmh SW 21.0 mph33.8 kmh 29.60 in1002.4 mb 0.00 in0.0 mm 0.00 in/hr0.0 mm/hr 0.00 in0.0 mm
04:39 PM 79.8°F26.6°C 49.7°F9.8°C 35% 6.0 mph WSW9.7 kmh WSW 21.0 mph33.8 kmh 29.60 in1002.4 mb 0.00 in0.0 mm 0.00 in/hr0.0 mm/hr 0.00 in0.0 mm
04:34 PM 79.8°F26.6°C 49.7°F9.8°C 35% 12.0 mph W19.3 kmh W 21.0 mph33.8 kmh 29.60 in1002.4 mb 0.00 in0.0 mm 0.00 in/hr0.0 mm/hr 0.00 in0.0 mm
04:29 PM 79.6°F26.4°C 49.5°F9.7°C 35% 13.0 mph SW20.9 kmh SW 21.0 mph33.8 kmh 29.60 in1002.4 mb 0.00 in0.0 mm 0.00 in/hr0.0 mm/hr 0.00 in0.0 mm
04:24 PM 79.9°F26.6°C 49.0°F9.4°C 34% 3.0 mph SW4.8 kmh SW 17.0 mph27.4 kmh 29.60 in1002.4 mb 0.00 in0.0 mm 0.00 in/hr0.0 mm/hr 0.00 in0.0 mm
04:19 PM 80.1°F26.7°C 49.2°F9.6°C 34% 7.0 mph SW11.3 kmh SW 17.0 mph27.4 kmh 29.60 in1002.4 mb 0.00 in0.0 mm 0.00 in/hr0.0 mm/hr 0.00 in0.0 mm
04:14 PM 79.8°F26.6°C 48.9°F9.4°C 34% 4.0 mph WSW6.4 kmh WSW 17.0 mph27.4 kmh 29.60 in1002.4 mb 0.00 in0.0 mm 0.00 in/hr0.0 mm/hr 0.00 in0.0 mm
04:09 PM 79.8°F26.6°C 48.9°F9.4°C 34% 3.0 mph WNW4.8 kmh WNW 21.0 mph33.8 kmh 29.61 in1002.7 mb 0.00 in0.0 mm 0.00 in/hr0.0 mm/hr 0.00 in0.0 mm
04:04 PM 79.8°F26.6°C 48.1°F8.9°C 33% 2.0 mph SSW3.2 kmh SSW 21.0 mph33.8 kmh 29.61 in1002.7 mb 0.00 in0.0 mm 0.00 in/hr0.0 mm/hr 0.00 in0.0 mm
03:59 PM 80.1°F26.7°C 47.6°F8.7°C 32% 5.0 mph SSW8.0 kmh SSW 21.0 mph33.8 kmh 29.61 in1002.7 mb 0.00 in0.0 mm 0.00 in/hr0.0 mm/hr 0.00 in0.0 mm
03:54 PM 80.3°F26.8°C 48.5°F9.2°C 33% 7.0 mph W11.3 kmh W 21.0 mph33.8 kmh 29.61 in1002.7 mb 0.00 in0.0 mm 0.00 in/hr0.0 mm/hr 0.00 in0.0 mm
03:49 PM 80.3°F26.8°C 47.7°F8.7°C 32% 11.0 mph SSW17.7 kmh SSW 18.0 mph29.0 kmh 29.61 in1002.7 mb 0.00 in0.0 mm 0.00 in/hr0.0 mm/hr 0.00 in0.0 mm
03:44 PM 80.3°F26.8°C 46.9°F8.3°C 31% 9.0 mph SW14.5 kmh SW 20.0 mph32.2 kmh 29.61 in1002.7 mb 0.00 in0.0 mm 0.00 in/hr0.0 mm/hr 0.00 in0.0 mm
03:39 PM 80.3°F26.8°C 46.9°F8.3°C 31% 11.0 mph SW17.7 kmh SW 20.0 mph32.2 kmh 29.62 in1003.0 mb 0.00 in0.0 mm 0.00 in/hr0.0 mm/hr 0.00 in0.0 mm
03:34 PM 80.7°F27.1°C 47.2°F8.4°C 31% 7.0 mph SW11.3 kmh SW 20.0 mph32.2 kmh 29.62 in1003.0 mb 0.00 in0.0 mm 0.00 in/hr0.0 mm/hr 0.00 in0.0 mm
03:29 PM 80.5°F26.9°C 47.1°F8.4°C 31% 2.0 mph SSW3.2 kmh SSW 20.0 mph32.2 kmh 29.62 in1003.0 mb 0.00 in0.0 mm 0.00 in/hr0.0 mm/hr 0.00 in0.0 mm
03:24 PM 80.5°F26.9°C 47.1°F8.4°C 31% 5.0 mph WSW8.0 kmh WSW 21.0 mph33.8 kmh 29.62 in1003.0 mb 0.00 in0.0 mm 0.00 in/hr0.0 mm/hr 0.00 in0.0 mm
03:19 PM 80.3°F26.8°C 48.5°F9.2°C 33% 6.0 mph NW9.7 kmh NW 21.0 mph33.8 kmh 29.62 in1003.0 mb 0.00 in0.0 mm 0.00 in/hr0.0 mm/hr 0.00 in0.0 mm
03:14 PM 80.3°F26.8°C 50.1°F10.1°C 35% 5.0 mph WSW8.0 kmh WSW 22.0 mph35.4 kmh 29.62 in1003.0 mb 0.00 in0.0 mm 0.00 in/hr0.0 mm/hr 0.00 in0.0 mm
03:09 PM 80.5°F26.9°C 48.7°F9.3°C 33% 9.0 mph WSW14.5 kmh WSW 22.0 mph35.4 kmh 29.61 in1002.7 mb 0.00 in0.0 mm 0.00 in/hr0.0 mm/hr 0.00 in0.0 mm
03:04 PM 80.7°F27.1°C 51.2°F10.7°C 36% 6.0 mph WSW9.7 kmh WSW 22.0 mph35.4 kmh 29.61 in1002.7 mb 0.00 in0.0 mm 0.00 in/hr0.0 mm/hr 0.00 in0.0 mm
02:59 PM 80.9°F27.2°C 51.4°F10.8°C 36% 9.0 mph SSW14.5 kmh SSW 22.0 mph35.4 kmh 29.61 in1002.7 mb 0.00 in0.0 mm 0.00 in/hr0.0 mm/hr 0.00 in0.0 mm
02:54 PM 81.1°F27.3°C 51.6°F10.9°C 36% 10.0 mph SW16.1 kmh SW 19.0 mph30.6 kmh 29.61 in1002.7 mb 0.00 in0.0 mm 0.00 in/hr0.0 mm/hr 0.00 in0.0 mm
02:49 PM 81.1°F27.3°C 51.6°F10.9°C 36% 6.0 mph SSW9.7 kmh SSW 18.0 mph29.0 kmh 29.61 in1002.7 mb 0.00 in0.0 mm 0.00 in/hr0.0 mm/hr 0.00 in0.0 mm
02:44 PM 80.9°F27.2°C 52.2°F11.2°C 37% 9.0 mph WSW14.5 kmh WSW 18.0 mph29.0 kmh 29.61 in1002.7 mb 0.00 in0.0 mm 0.00 in/hr0.0 mm/hr 0.00 in0.0 mm
02:39 PM 80.7°F27.1°C 52.7°F11.5°C 38% 11.0 mph WSW17.7 kmh WSW 21.0 mph33.8 kmh 29.62 in1003.0 mb 0.00 in0.0 mm 0.00 in/hr0.0 mm/hr 0.00 in0.0 mm
02:34 PM 80.9°F27.2°C 52.2°F11.2°C 37% 10.0 mph SSW16.1 kmh SSW 21.0 mph33.8 kmh 29.62 in1003.0 mb 0.00 in0.0 mm 0.00 in/hr0.0 mm/hr 0.00 in0.0 mm
02:29 PM 80.5°F26.9°C 52.5°F11.4°C 38% 13.0 mph S20.9 kmh S 21.0 mph33.8 kmh 29.62 in1003.0 mb 0.00 in0.0 mm 0.00 in/hr0.0 mm/hr 0.00 in0.0 mm
02:24 PM 80.5°F26.9°C 53.2°F11.8°C 39% 6.0 mph SW9.7 kmh SW 21.0 mph33.8 kmh 29.62 in1003.0 mb 0.00 in0.0 mm 0.00 in/hr0.0 mm/hr 0.00 in0.0 mm
02:19 PM 80.3°F26.8°C 52.4°F11.3°C 38% 11.0 mph SW17.7 kmh SW 21.0 mph33.8 kmh 29.62 in1003.0 mb 0.00 in0.0 mm 0.00 in/hr0.0 mm/hr 0.00 in0.0 mm
02:14 PM 80.3°F26.8°C 52.4°F11.3°C 38% 17.0 mph SSW27.4 kmh SSW 21.0 mph33.8 kmh 29.62 in1003.0 mb 0.00 in0.0 mm 0.00 in/hr0.0 mm/hr 0.00 in0.0 mm
02:09 PM 80.9°F27.2°C 52.9°F11.6°C 38% 14.0 mph SSW22.5 kmh SSW 18.0 mph29.0 kmh 29.62 in1003.0 mb 0.00 in0.0 mm 0.00 in/hr0.0 mm/hr 0.00 in0.0 mm
02:04 PM 80.5°F26.9°C 51.8°F11.0°C 37% 9.0 mph WSW14.5 kmh WSW 18.0 mph29.0 kmh 29.62 in1003.0 mb 0.00 in0.0 mm 0.00 in/hr0.0 mm/hr 0.00 in0.0 mm
01:59 PM 80.5°F26.9°C 52.5°F11.4°C 38% 4.0 mph WNW6.4 kmh WNW 17.0 mph27.4 kmh 29.62 in1003.0 mb 0.00 in0.0 mm 0.00 in/hr0.0 mm/hr 0.00 in0.0 mm
01:54 PM 80.3°F26.8°C 52.4°F11.3°C 38% 10.0 mph WSW16.1 kmh WSW 17.0 mph27.4 kmh 29.63 in1003.4 mb 0.00 in0.0 mm 0.00 in/hr0.0 mm/hr 0.00 in0.0 mm
01:49 PM 80.3°F26.8°C 53.1°F11.7°C 39% 6.0 mph WNW9.7 kmh WNW 19.0 mph30.6 kmh 29.63 in1003.4 mb 0.00 in0.0 mm 0.00 in/hr0.0 mm/hr 0.00 in0.0 mm
01:44 PM 79.9°F26.6°C 53.4°F11.9°C 40% 9.0 mph WSW14.5 kmh WSW 19.0 mph30.6 kmh 29.63 in1003.4 mb 0.00 in0.0 mm 0.00 in/hr0.0 mm/hr 0.00 in0.0 mm
01:39 PM 79.9°F26.6°C 52.7°F11.5°C 39% 7.0 mph WSW11.3 kmh WSW 19.0 mph30.6 kmh 29.63 in1003.4 mb 0.00 in0.0 mm 0.00 in/hr0.0 mm/hr 0.00 in0.0 mm
01:34 PM 80.3°F26.8°C 52.4°F11.3°C 38% 12.0 mph SSW19.3 kmh SSW 19.0 mph30.6 kmh 29.63 in1003.4 mb 0.00 in0.0 mm 0.00 in/hr0.0 mm/hr 0.00 in0.0 mm
01:29 PM 80.7°F27.1°C 53.4°F11.9°C 39% 11.0 mph SW17.7 kmh SW 18.0 mph29.0 kmh 29.63 in1003.4 mb 0.00 in0.0 mm 0.00 in/hr0.0 mm/hr 0.00 in0.0 mm
01:24 PM 80.3°F26.8°C 52.4°F11.3°C 38% 9.0 mph WSW14.5 kmh WSW 18.0 mph29.0 kmh 29.64 in1003.7 mb 0.00 in0.0 mm 0.00 in/hr0.0 mm/hr 0.00 in0.0 mm
01:19 PM 80.7°F27.1°C 52.7°F11.5°C 38% 18.0 mph WSW29.0 kmh WSW 20.0 mph32.2 kmh 29.64 in1003.7 mb 0.00 in0.0 mm 0.00 in/hr0.0 mm/hr 0.00 in0.0 mm
01:14 PM 81.2°F27.3°C 52.4°F11.3°C 37% 10.0 mph SW16.1 kmh SW 20.0 mph32.2 kmh 29.64 in1003.7 mb 0.00 in0.0 mm 0.00 in/hr0.0 mm/hr 0.00 in0.0 mm
01:09 PM 80.5°F26.9°C 52.5°F11.4°C 38% 6.0 mph SW9.7 kmh SW 20.0 mph32.2 kmh 29.63 in1003.4 mb 0.00 in0.0 mm 0.00 in/hr0.0 mm/hr 0.00 in0.0 mm
01:04 PM 80.7°F27.1°C 53.4°F11.9°C 39% 13.0 mph W20.9 kmh W 20.0 mph32.2 kmh 29.63 in1003.4 mb 0.00 in0.0 mm 0.00 in/hr0.0 mm/hr 0.00 in0.0 mm
12:59 PM 80.5°F26.9°C 52.5°F11.4°C 38% 12.0 mph SSW19.3 kmh SSW 17.0 mph27.4 kmh 29.63 in1003.4 mb 0.00 in0.0 mm 0.00 in/hr0.0 mm/hr 0.00 in0.0 mm
12:54 PM 80.7°F27.1°C 52.7°F11.5°C 38% 11.0 mph W17.7 kmh W 17.0 mph27.4 kmh 29.64 in1003.7 mb 0.00 in0.0 mm 0.00 in/hr0.0 mm/hr 0.00 in0.0 mm
12:49 PM 80.5°F26.9°C 52.5°F11.4°C 38% 6.0 mph S9.7 kmh S 21.0 mph33.8 kmh 29.64 in1003.7 mb 0.00 in0.0 mm 0.00 in/hr0.0 mm/hr 0.00 in0.0 mm
12:44 PM 79.9°F26.6°C 52.7°F11.5°C 39% 6.0 mph WSW9.7 kmh WSW 21.0 mph33.8 kmh 29.64 in1003.7 mb 0.00 in0.0 mm 0.00 in/hr0.0 mm/hr 0.00 in0.0 mm
12:39 PM 79.8°F26.6°C 53.3°F11.8°C 40% 15.0 mph SW24.1 kmh SW 21.0 mph33.8 kmh 29.65 in1004.1 mb 0.00 in0.0 mm 0.00 in/hr0.0 mm/hr 0.00 in0.0 mm
12:34 PM 79.8°F26.6°C 51.9°F11.1°C 38% 7.0 mph WSW11.3 kmh WSW 21.0 mph33.8 kmh 29.65 in1004.1 mb 0.00 in0.0 mm 0.00 in/hr0.0 mm/hr 0.00 in0.0 mm
12:29 PM 79.9°F26.6°C 52.0°F11.1°C 38% 5.0 mph W8.0 kmh W 18.0 mph29.0 kmh 29.65 in1004.1 mb 0.00 in0.0 mm 0.00 in/hr0.0 mm/hr 0.00 in0.0 mm
12:24 PM 80.3°F26.8°C 52.4°F11.3°C 38% 7.0 mph SSW11.3 kmh SSW 22.0 mph35.4 kmh 29.65 in1004.1 mb 0.00 in0.0 mm 0.00 in/hr0.0 mm/hr 0.00 in0.0 mm
12:19 PM 80.3°F26.8°C 52.4°F11.3°C 38% 4.0 mph NW6.4 kmh NW 22.0 mph35.4 kmh 29.65 in1004.1 mb 0.00 in0.0 mm 0.00 in/hr0.0 mm/hr 0.00 in0.0 mm
12:14 PM 79.8°F26.6°C 54.6°F12.6°C 42% 4.0 mph SW6.4 kmh SW 24.0 mph38.6 kmh 29.65 in1004.1 mb 0.00 in0.0 mm 0.00 in/hr0.0 mm/hr 0.00 in0.0 mm
12:09 PM 79.9°F26.6°C 52.0°F11.1°C 38% 4.0 mph SSW6.4 kmh SSW 24.0 mph38.6 kmh 29.65 in1004.1 mb 0.00 in0.0 mm 0.00 in/hr0.0 mm/hr 0.00 in0.0 mm
12:04 PM 79.9°F26.6°C 51.3°F10.7°C 37% 18.0 mph SSW29.0 kmh SSW 24.0 mph38.6 kmh 29.65 in1004.1 mb 0.00 in0.0 mm 0.00 in/hr0.0 mm/hr 0.00 in0.0 mm
11:59 AM 79.8°F26.6°C 51.9°F11.1°C 38% 11.0 mph SSW17.7 kmh SSW 24.0 mph38.6 kmh 29.65 in1004.1 mb 0.00 in0.0 mm 0.00 in/hr0.0 mm/hr 0.00 in0.0 mm
11:54 AM 79.9°F26.6°C 51.3°F10.7°C 37% 7.0 mph NW11.3 kmh NW 23.0 mph37.0 kmh 29.65 in1004.1 mb 0.00 in0.0 mm 0.00 in/hr0.0 mm/hr 0.00 in0.0 mm
11:49 AM 79.8°F26.6°C 51.9°F11.1°C 38% 6.0 mph WNW9.7 kmh WNW 23.0 mph37.0 kmh 29.65 in1004.1 mb 0.00 in0.0 mm 0.00 in/hr0.0 mm/hr 0.00 in0.0 mm
11:44 AM 80.1°F26.7°C 51.5°F10.8°C 37% 6.0 mph SW9.7 kmh SW 20.0 mph32.2 kmh 29.65 in1004.1 mb 0.00 in0.0 mm 0.00 in/hr0.0 mm/hr 0.00 in0.0 mm
11:39 AM 80.3°F26.8°C 50.9°F10.5°C 36% 16.0 mph WSW25.7 kmh WSW 20.0 mph32.2 kmh 29.65 in1004.1 mb 0.00 in0.0 mm 0.00 in/hr0.0 mm/hr 0.00 in0.0 mm
11:34 AM 80.1°F26.7°C 50.0°F10.0°C 35% 5.0 mph WSW8.0 kmh WSW 16.0 mph25.7 kmh 29.65 in1004.1 mb 0.00 in0.0 mm 0.00 in/hr0.0 mm/hr 0.00 in0.0 mm
11:29 AM 79.9°F26.6°C 49.8°F9.9°C 35% 14.0 mph SW22.5 kmh SW 16.0 mph25.7 kmh 29.65 in1004.1 mb 0.00 in0.0 mm 0.00 in/hr0.0 mm/hr 0.00 in0.0 mm
11:24 AM 79.9°F26.6°C 49.8°F9.9°C 35% 12.0 mph WSW19.3 kmh WSW 15.0 mph24.1 kmh 29.65 in1004.1 mb 0.00 in0.0 mm 0.00 in/hr0.0 mm/hr 0.00 in0.0 mm
11:19 AM 79.9°F26.6°C 49.8°F9.9°C 35% 5.0 mph WSW8.0 kmh WSW 15.0 mph24.1 kmh 29.65 in1004.1 mb 0.00 in0.0 mm 0.00 in/hr0.0 mm/hr 0.00 in0.0 mm
11:14 AM 80.5°F26.9°C 49.5°F9.7°C 34% 14.0 mph WSW22.5 kmh WSW 17.0 mph27.4 kmh 29.65 in1004.1 mb 0.00 in0.0 mm 0.00 in/hr0.0 mm/hr 0.00 in0.0 mm
11:09 AM 80.5°F26.9°C 49.5°F9.7°C 34% 3.0 mph W4.8 kmh W 17.0 mph27.4 kmh 29.65 in1004.1 mb 0.00 in0.0 mm 0.00 in/hr0.0 mm/hr 0.00 in0.0 mm
11:04 AM 80.3°F26.8°C 48.5°F9.2°C 33% 7.0 mph WSW11.3 kmh WSW 19.0 mph30.6 kmh 29.65 in1004.1 mb 0.00 in0.0 mm 0.00 in/hr0.0 mm/hr 0.00 in0.0 mm
10:59 AM 80.1°F26.7°C 49.2°F9.6°C 34% 7.0 mph NW11.3 kmh NW 19.0 mph30.6 kmh 29.65 in1004.1 mb 0.00 in0.0 mm 0.00 in/hr0.0 mm/hr 0.00 in0.0 mm
10:54 AM 80.1°F26.7°C 49.2°F9.6°C 34% 5.0 mph W8.0 kmh W 19.0 mph30.6 kmh 29.65 in1004.1 mb 0.00 in0.0 mm 0.00 in/hr0.0 mm/hr 0.00 in0.0 mm
10:49 AM 80.1°F26.7°C 50.0°F10.0°C 35% 5.0 mph W8.0 kmh W 19.0 mph30.6 kmh 29.65 in1004.1 mb 0.00 in0.0 mm 0.00 in/hr0.0 mm/hr 0.00 in0.0 mm
10:44 AM 80.1°F26.7°C 50.0°F10.0°C 35% 11.0 mph W17.7 kmh W 17.0 mph27.4 kmh 29.65 in1004.1 mb 0.00 in0.0 mm 0.00 in/hr0.0 mm/hr 0.00 in0.0 mm
10:39 AM 79.8°F26.6°C 48.9°F9.4°C 34% 7.0 mph NW11.3 kmh NW 17.0 mph27.4 kmh 29.65 in1004.1 mb 0.00 in0.0 mm 0.00 in/hr0.0 mm/hr 0.00 in0.0 mm
10:34 AM 79.4°F26.3°C 47.8°F8.8°C 33% 5.0 mph W8.0 kmh W 17.0 mph27.4 kmh 29.65 in1004.1 mb 0.00 in0.0 mm 0.00 in/hr0.0 mm/hr 0.00 in0.0 mm
10:29 AM 79.4°F26.3°C 49.3°F9.6°C 35% 7.0 mph WSW11.3 kmh WSW 16.0 mph25.7 kmh 29.65 in1004.1 mb 0.00 in0.0 mm 0.00 in/hr0.0 mm/hr 0.00 in0.0 mm
10:24 AM 79.0°F26.1°C 48.2°F9.0°C 34% 11.0 mph WSW17.7 kmh WSW 16.0 mph25.7 kmh 29.65 in1004.1 mb 0.00 in0.0 mm 0.00 in/hr0.0 mm/hr 0.00 in0.0 mm
10:19 AM 78.6°F25.9°C 49.4°F9.7°C 36% 10.0 mph SW16.1 kmh SW 16.0 mph25.7 kmh 29.65 in1004.1 mb 0.00 in0.0 mm 0.00 in/hr0.0 mm/hr 0.00 in0.0 mm
10:14 AM 77.9°F25.5°C 48.0°F8.9°C 35% 8.0 mph SW12.9 kmh SW 11.0 mph17.7 kmh 29.65 in1004.1 mb 0.00 in0.0 mm 0.00 in/hr0.0 mm/hr 0.00 in0.0 mm
10:12 AM -5537.2°C -5537.2°C - - N16091.8 kmh N -- -338605.1 mb 0.00 in0.0 mm 0.00 in/hr0.0 mm/hr 0.00 in0.0 mm
10:07 AM 77.6°F25.3°C 47.8°F8.8°C 35% 5.0 mph SW8.0 kmh SW 18.0 mph29.0 kmh 29.64 in1003.7 mb 0.00 in0.0 mm 0.00 in/hr0.0 mm/hr 0.00 in0.0 mm
10:02 AM 77.2°F25.1°C 49.6°F9.8°C 38% 5.0 mph WSW8.0 kmh WSW 8.0 mph12.9 kmh 29.64 in1003.7 mb 0.00 in0.0 mm 0.00 in/hr0.0 mm/hr 0.00 in0.0 mm
09:57 AM 76.3°F24.6°C 49.5°F9.7°C 39% 2.0 mph WSW3.2 kmh WSW 7.0 mph11.3 kmh 29.65 in1004.1 mb 0.00 in0.0 mm 0.00 in/hr0.0 mm/hr 0.00 in0.0 mm
09:52 AM 75.6°F24.2°C 49.6°F9.8°C 40% 6.0 mph WNW9.7 kmh WNW 10.0 mph16.1 kmh 29.65 in1004.1 mb 0.00 in0.0 mm 0.00 in/hr0.0 mm/hr 0.00 in0.0 mm
09:47 AM 74.9°F23.8°C 50.2°F10.1°C 42% 2.0 mph SSW3.2 kmh SSW 10.0 mph16.1 kmh 29.65 in1004.1 mb 0.00 in0.0 mm 0.00 in/hr0.0 mm/hr 0.00 in0.0 mm
09:42 AM 74.2°F23.4°C 50.2°F10.1°C 43% 2.0 mph SW3.2 kmh SW 10.0 mph16.1 kmh 29.65 in1004.1 mb 0.00 in0.0 mm 0.00 in/hr0.0 mm/hr 0.00 in0.0 mm
09:37 AM 74.0°F23.3°C 50.1°F10.1°C 43% 1.0 mph SSW1.6 kmh SSW 10.0 mph16.1 kmh 29.65 in1004.1 mb 0.00 in0.0 mm 0.00 in/hr0.0 mm/hr 0.00 in0.0 mm
09:32 AM 73.9°F23.3°C 50.6°F10.3°C 44% 5.0 mph SW8.0 kmh SW 7.0 mph11.3 kmh 29.65 in1004.1 mb 0.00 in0.0 mm 0.00 in/hr0.0 mm/hr 0.00 in0.0 mm
09:27 AM 73.3°F22.9°C 50.7°F10.4°C 45% 2.0 mph WSW3.2 kmh WSW 7.0 mph11.3 kmh 29.66 in1004.4 mb 0.00 in0.0 mm 0.00 in/hr0.0 mm/hr 0.00 in0.0 mm
09:22 AM 73.2°F22.9°C 50.6°F10.3°C 45% 3.0 mph W4.8 kmh W 6.0 mph9.7 kmh 29.66 in1004.4 mb 0.00 in0.0 mm 0.00 in/hr0.0 mm/hr 0.00 in0.0 mm
09:17 AM 72.5°F22.5°C 50.5°F10.3°C 46% 1.0 mph SW1.6 kmh SW 5.0 mph8.0 kmh 29.66 in1004.4 mb 0.00 in0.0 mm 0.00 in/hr0.0 mm/hr 0.00 in0.0 mm
09:12 AM 71.8°F22.1°C 50.5°F10.3°C 47% 4.0 mph WNW6.4 kmh WNW 6.0 mph9.7 kmh 29.65 in1004.1 mb 0.00 in0.0 mm 0.00 in/hr0.0 mm/hr 0.00 in0.0 mm
09:07 AM 71.5°F21.9°C 50.2°F10.1°C 47% 1.0 mph SW1.6 kmh SW 6.0 mph9.7 kmh 29.65 in1004.1 mb 0.00 in0.0 mm 0.00 in/hr0.0 mm/hr 0.00 in0.0 mm
09:02 AM 70.9°F21.6°C 50.8°F10.4°C 49% 2.0 mph WSW3.2 kmh WSW 6.0 mph9.7 kmh 29.65 in1004.1 mb 0.00 in0.0 mm 0.00 in/hr0.0 mm/hr 0.00 in0.0 mm
08:57 AM 70.3°F21.3°C 50.8°F10.4°C 50% 1.0 mph W1.6 kmh W 6.0 mph9.7 kmh 29.65 in1004.1 mb 0.00 in0.0 mm 0.00 in/hr0.0 mm/hr 0.00 in0.0 mm
08:52 AM 69.8°F21.0°C 50.8°F10.4°C 51% 2.0 mph W3.2 kmh W 6.0 mph9.7 kmh 29.65 in1004.1 mb 0.00 in0.0 mm 0.00 in/hr0.0 mm/hr 0.00 in0.0 mm
08:47 AM 69.1°F20.6°C 50.7°F10.4°C 52% 1.0 mph SW1.6 kmh SW 6.0 mph9.7 kmh 29.65 in1004.1 mb 0.00 in0.0 mm 0.00 in/hr0.0 mm/hr 0.00 in0.0 mm
08:42 AM 68.3°F20.2°C 50.0°F10.0°C 52% 2.0 mph WSW3.2 kmh WSW 6.0 mph9.7 kmh 29.66 in1004.4 mb 0.00 in0.0 mm 0.00 in/hr0.0 mm/hr 0.00 in0.0 mm
08:37 AM 67.8°F19.9°C 50.5°F10.3°C 54% 2.0 mph SW3.2 kmh SW 6.0 mph9.7 kmh 29.66 in1004.4 mb 0.00 in0.0 mm 0.00 in/hr0.0 mm/hr 0.00 in0.0 mm
08:32 AM 67.1°F19.5°C 50.9°F10.5°C 56% 1.0 mph WSW1.6 kmh WSW 5.0 mph8.0 kmh 29.66 in1004.4 mb 0.00 in0.0 mm 0.00 in/hr0.0 mm/hr 0.00 in0.0 mm
08:27 AM 66.3°F19.1°C 50.1°F10.1°C 56% 1.0 mph WSW1.6 kmh WSW 4.0 mph6.4 kmh 29.66 in1004.4 mb 0.00 in0.0 mm 0.00 in/hr0.0 mm/hr 0.00 in0.0 mm
08:22 AM 65.8°F18.8°C 49.7°F9.8°C 56% 1.0 mph WSW1.6 kmh WSW 4.0 mph6.4 kmh 29.66 in1004.4 mb 0.00 in0.0 mm 0.00 in/hr0.0 mm/hr 0.00 in0.0 mm
08:17 AM 65.3°F18.5°C 49.7°F9.8°C 57% 1.0 mph WSW1.6 kmh WSW 4.0 mph6.4 kmh 29.66 in1004.4 mb 0.00 in0.0 mm 0.00 in/hr0.0 mm/hr 0.00 in0.0 mm
08:12 AM 65.0°F18.3°C 49.9°F9.9°C 58% Calm Calm 4.0 mph6.4 kmh 29.65 in1004.1 mb 0.00 in0.0 mm 0.00 in/hr0.0 mm/hr 0.00 in0.0 mm
08:07 AM 64.7°F18.2°C 49.6°F9.8°C 58% 2.0 mph NW3.2 kmh NW 4.0 mph6.4 kmh 29.65 in1004.1 mb 0.00 in0.0 mm 0.00 in/hr0.0 mm/hr 0.00 in0.0 mm
08:02 AM 64.5°F18.1°C 49.4°F9.7°C 58% 3.0 mph W4.8 kmh W 4.0 mph6.4 kmh 29.65 in1004.1 mb 0.00 in0.0 mm 0.00 in/hr0.0 mm/hr 0.00 in0.0 mm
07:57 AM 63.9°F17.7°C 49.7°F9.8°C 60% Calm Calm 3.0 mph4.8 kmh 29.66 in1004.4 mb 0.00 in0.0 mm 0.00 in/hr0.0 mm/hr 0.00 in0.0 mm
07:52 AM 63.1°F17.3°C 49.0°F9.4°C 60% 1.0 mph W1.6 kmh W 3.0 mph4.8 kmh 29.66 in1004.4 mb 0.00 in0.0 mm 0.00 in/hr0.0 mm/hr 0.00 in0.0 mm
07:47 AM 62.3°F16.8°C 49.1°F9.5°C 62% 1.0 mph W1.6 kmh W 3.0 mph4.8 kmh 29.66 in1004.4 mb 0.00 in0.0 mm 0.00 in/hr0.0 mm/hr 0.00 in0.0 mm
07:42 AM 61.0°F16.1°C 48.3°F9.1°C 63% Calm Calm 3.0 mph4.8 kmh 29.67 in1004.7 mb 0.00 in0.0 mm 0.00 in/hr0.0 mm/hr 0.00 in0.0 mm
07:37 AM 60.4°F15.8°C 47.3°F8.5°C 62% 2.0 mph W3.2 kmh W 2.0 mph3.2 kmh 29.67 in1004.7 mb 0.00 in0.0 mm 0.00 in/hr0.0 mm/hr 0.00 in0.0 mm
07:32 AM 59.9°F15.5°C 46.8°F8.2°C 62% Calm Calm -- 29.67 in1004.7 mb 0.00 in0.0 mm 0.00 in/hr0.0 mm/hr 0.00 in0.0 mm
07:27 AM 59.6°F15.3°C 47.0°F8.3°C 63% Calm Calm 1.0 mph1.6 kmh 29.67 in1004.7 mb 0.00 in0.0 mm 0.00 in/hr0.0 mm/hr 0.00 in0.0 mm
07:22 AM 59.0°F15.0°C 46.4°F8.0°C 63% 1.0 mph W1.6 kmh W 2.0 mph3.2 kmh 29.67 in1004.7 mb 0.00 in0.0 mm 0.00 in/hr0.0 mm/hr 0.00 in0.0 mm
07:17 AM 58.7°F14.8°C 45.7°F7.6°C 62% 1.0 mph W1.6 kmh W 2.0 mph3.2 kmh 29.67 in1004.7 mb 0.00 in0.0 mm 0.00 in/hr0.0 mm/hr 0.00 in0.0 mm
07:12 AM 58.9°F14.9°C 46.7°F8.2°C 64% 1.0 mph W1.6 kmh W 1.0 mph1.6 kmh 29.66 in1004.4 mb 0.00 in0.0 mm 0.00 in/hr0.0 mm/hr 0.00 in0.0 mm
07:07 AM 58.7°F14.8°C 47.0°F8.3°C 65% Calm Calm -- 29.66 in1004.4 mb 0.00 in0.0 mm 0.00 in/hr0.0 mm/hr 0.00 in0.0 mm
07:02 AM 58.3°F14.6°C 46.6°F8.1°C 65% Calm Calm 2.0 mph3.2 kmh 29.66 in1004.4 mb 0.00 in0.0 mm 0.00 in/hr0.0 mm/hr 0.00 in0.0 mm
06:57 AM 58.3°F14.6°C 45.8°F7.7°C 63% 1.0 mph W1.6 kmh W 1.0 mph1.6 kmh 29.64 in1003.7 mb 0.00 in0.0 mm 0.00 in/hr0.0 mm/hr 0.00 in0.0 mm
06:52 AM 58.6°F14.8°C 46.0°F7.8°C 63% Calm Calm -- 29.64 in1003.7 mb 0.00 in0.0 mm 0.00 in/hr0.0 mm/hr 0.00 in0.0 mm
06:47 AM 58.9°F14.9°C 46.3°F7.9°C 63% Calm Calm -- 29.64 in1003.7 mb 0.00 in0.0 mm 0.00 in/hr0.0 mm/hr 0.00 in0.0 mm
06:42 AM 58.9°F14.9°C 46.7°F8.2°C 64% 1.0 mph W1.6 kmh W 3.0 mph4.8 kmh 29.64 in1003.7 mb 0.00 in0.0 mm 0.00 in/hr0.0 mm/hr 0.00 in0.0 mm
06:37 AM 58.6°F14.8°C 46.0°F7.8°C 63% 1.0 mph W1.6 kmh W 2.0 mph3.2 kmh 29.64 in1003.7 mb 0.00 in0.0 mm 0.00 in/hr0.0 mm/hr 0.00 in0.0 mm
06:32 AM 58.7°F14.8°C 45.7°F7.6°C 62% Calm Calm 1.0 mph1.6 kmh 29.64 in1003.7 mb 0.00 in0.0 mm 0.00 in/hr0.0 mm/hr 0.00 in0.0 mm
06:27 AM 59.0°F15.0°C 46.0°F7.8°C 62% 1.0 mph W1.6 kmh W 1.0 mph1.6 kmh 29.64 in1003.7 mb 0.00 in0.0 mm 0.00 in/hr0.0 mm/hr 0.00 in0.0 mm
06:22 AM 59.3°F15.2°C 45.8°F7.7°C 61% Calm Calm -- 29.64 in1003.7 mb 0.00 in0.0 mm 0.00 in/hr0.0 mm/hr 0.00 in0.0 mm
06:17 AM 59.6°F15.3°C 45.7°F7.6°C 60% Calm Calm -- 29.64 in1003.7 mb 0.00 in0.0 mm 0.00 in/hr0.0 mm/hr 0.00 in0.0 mm
06:12 AM 59.9°F15.5°C 46.0°F7.8°C 60% Calm Calm -- 29.61 in1002.7 mb 0.00 in0.0 mm 0.00 in/hr0.0 mm/hr 0.00 in0.0 mm
06:07 AM 60.1°F15.6°C 46.2°F7.9°C 60% Calm Calm -- 29.61 in1002.7 mb 0.00 in0.0 mm 0.00 in/hr0.0 mm/hr 0.00 in0.0 mm
06:02 AM 60.2°F15.7°C 45.8°F7.7°C 59% Calm Calm -- 29.61 in1002.7 mb 0.00 in0.0 mm 0.00 in/hr0.0 mm/hr 0.00 in0.0 mm
05:57 AM 60.5°F15.8°C 46.1°F7.8°C 59% Calm Calm -- 29.61 in1002.7 mb 0.00 in0.0 mm 0.00 in/hr0.0 mm/hr 0.00 in0.0 mm
05:52 AM 60.9°F16.1°C 46.0°F7.8°C 58% Calm Calm -- 29.61 in1002.7 mb 0.00 in0.0 mm 0.00 in/hr0.0 mm/hr 0.00 in0.0 mm
05:47 AM 61.0°F16.1°C 46.1°F7.8°C 58% Calm Calm -- 29.61 in1002.7 mb 0.00 in0.0 mm 0.00 in/hr0.0 mm/hr 0.00 in0.0 mm
05:42 AM 61.2°F16.2°C 45.8°F7.7°C 57% Calm Calm 2.0 mph3.2 kmh 29.61 in1002.7 mb 0.00 in0.0 mm 0.00 in/hr0.0 mm/hr 0.00 in0.0 mm
05:37 AM 61.5°F16.4°C 45.7°F7.6°C 56% Calm Calm -- 29.61 in1002.7 mb 0.00 in0.0 mm 0.00 in/hr0.0 mm/hr 0.00 in0.0 mm
05:32 AM 61.8°F16.6°C 45.9°F7.7°C 56% Calm Calm 2.0 mph3.2 kmh 29.61 in1002.7 mb 0.00 in0.0 mm 0.00 in/hr0.0 mm/hr 0.00 in0.0 mm
05:27 AM 62.1°F16.7°C 45.7°F7.6°C 55% 1.0 mph W1.6 kmh W 2.0 mph3.2 kmh 29.60 in1002.4 mb 0.00 in0.0 mm 0.00 in/hr0.0 mm/hr 0.00 in0.0 mm
05:22 AM 62.4°F16.9°C 46.0°F7.8°C 55% Calm Calm 2.0 mph3.2 kmh 29.60 in1002.4 mb 0.00 in0.0 mm 0.00 in/hr0.0 mm/hr 0.00 in0.0 mm
05:17 AM 62.9°F17.2°C 46.0°F7.8°C 54% 1.0 mph W1.6 kmh W 4.0 mph6.4 kmh 29.60 in1002.4 mb 0.00 in0.0 mm 0.00 in/hr0.0 mm/hr 0.00 in0.0 mm
05:12 AM 63.2°F17.3°C 46.3°F7.9°C 54% 2.0 mph W3.2 kmh W 4.0 mph6.4 kmh 29.59 in1002.0 mb 0.00 in0.0 mm 0.00 in/hr0.0 mm/hr 0.00 in0.0 mm
05:07 AM 63.4°F17.4°C 46.0°F7.8°C 53% 2.0 mph W3.2 kmh W 5.0 mph8.0 kmh 29.59 in1002.0 mb 0.00 in0.0 mm 0.00 in/hr0.0 mm/hr 0.00 in0.0 mm
05:02 AM 63.5°F17.5°C 46.1°F7.8°C 53% 1.0 mph W1.6 kmh W 5.0 mph8.0 kmh 29.59 in1002.0 mb 0.00 in0.0 mm 0.00 in/hr0.0 mm/hr 0.00 in0.0 mm
04:57 AM 63.7°F17.6°C 46.2°F7.9°C 53% 4.0 mph W6.4 kmh W 6.0 mph9.7 kmh 29.59 in1002.0 mb 0.00 in0.0 mm 0.00 in/hr0.0 mm/hr 0.00 in0.0 mm
04:52 AM 63.7°F17.6°C 45.7°F7.6°C 52% 1.0 mph WSW1.6 kmh WSW 6.0 mph9.7 kmh 29.59 in1002.0 mb 0.00 in0.0 mm 0.00 in/hr0.0 mm/hr 0.00 in0.0 mm
04:47 AM 63.5°F17.5°C 45.6°F7.6°C 52% 3.0 mph W4.8 kmh W 6.0 mph9.7 kmh 29.59 in1002.0 mb 0.00 in0.0 mm 0.00 in/hr0.0 mm/hr 0.00 in0.0 mm
04:42 AM 63.2°F17.3°C 45.3°F7.4°C 52% 3.0 mph WSW4.8 kmh WSW 6.0 mph9.7 kmh 29.59 in1002.0 mb 0.00 in0.0 mm 0.00 in/hr0.0 mm/hr 0.00 in0.0 mm
04:37 AM 62.9°F17.2°C 45.0°F7.2°C 52% 3.0 mph W4.8 kmh W 5.0 mph8.0 kmh 29.59 in1002.0 mb 0.00 in0.0 mm 0.00 in/hr0.0 mm/hr 0.00 in0.0 mm
04:32 AM 62.6°F17.0°C 44.7°F7.1°C 52% 2.0 mph W3.2 kmh W 5.0 mph8.0 kmh 29.59 in1002.0 mb 0.00 in0.0 mm 0.00 in/hr0.0 mm/hr 0.00 in0.0 mm
04:27 AM 62.3°F16.8°C 44.4°F6.9°C 52% 3.0 mph WNW4.8 kmh WNW 4.0 mph6.4 kmh 29.58 in1001.7 mb 0.00 in0.0 mm 0.00 in/hr0.0 mm/hr 0.00 in0.0 mm
04:22 AM 62.0°F16.7°C 44.2°F6.8°C 52% 3.0 mph WNW4.8 kmh WNW 4.0 mph6.4 kmh 29.58 in1001.7 mb 0.00 in0.0 mm 0.00 in/hr0.0 mm/hr 0.00 in0.0 mm
04:17 AM 61.8°F16.6°C 43.5°F6.4°C 51% Calm Calm -- 29.58 in1001.7 mb 0.00 in0.0 mm 0.00 in/hr0.0 mm/hr 0.00 in0.0 mm
04:12 AM 62.0°F16.7°C 43.7°F6.5°C 51% Calm Calm -- 29.58 in1001.7 mb 0.00 in0.0 mm 0.00 in/hr0.0 mm/hr 0.00 in0.0 mm
04:07 AM 62.1°F16.7°C 43.8°F6.6°C 51% Calm Calm -- 29.58 in1001.7 mb 0.00 in0.0 mm 0.00 in/hr0.0 mm/hr 0.00 in0.0 mm
04:02 AM 62.3°F16.8°C 43.4°F6.3°C 50% Calm Calm -- 29.58 in1001.7 mb 0.00 in0.0 mm 0.00 in/hr0.0 mm/hr 0.00 in0.0 mm
03:57 AM 62.4°F16.9°C 43.5°F6.4°C 50% Calm Calm -- 29.58 in1001.7 mb 0.00 in0.0 mm 0.00 in/hr0.0 mm/hr 0.00 in0.0 mm
03:52 AM 62.4°F16.9°C 43.5°F6.4°C 50% Calm Calm -- 29.58 in1001.7 mb 0.00 in0.0 mm 0.00 in/hr0.0 mm/hr 0.00 in0.0 mm
03:47 AM 62.4°F16.9°C 43.5°F6.4°C 50% Calm Calm -- 29.58 in1001.7 mb 0.00 in0.0 mm 0.00 in/hr0.0 mm/hr 0.00 in0.0 mm
03:42 AM 62.6°F17.0°C 43.7°F6.5°C 50% Calm Calm -- 29.59 in1002.0 mb 0.00 in0.0 mm 0.00 in/hr0.0 mm/hr 0.00 in0.0 mm
03:37 AM 62.7°F17.1°C 43.3°F6.3°C 49% Calm Calm -- 29.59 in1002.0 mb 0.00 in0.0 mm 0.00 in/hr0.0 mm/hr 0.00 in0.0 mm
03:32 AM 62.9°F17.2°C 42.9°F6.1°C 48% Calm Calm 1.0 mph1.6 kmh 29.59 in1002.0 mb 0.00 in0.0 mm 0.00 in/hr0.0 mm/hr 0.00 in0.0 mm
03:27 AM 63.2°F17.3°C 43.2°F6.2°C 48% Calm Calm -- 29.58 in1001.7 mb 0.00 in0.0 mm 0.00 in/hr0.0 mm/hr 0.00 in0.0 mm
03:22 AM 63.4°F17.4°C 43.4°F6.3°C 48% Calm Calm 1.0 mph1.6 kmh 29.58 in1001.7 mb 0.00 in0.0 mm 0.00 in/hr0.0 mm/hr 0.00 in0.0 mm
03:17 AM 63.7°F17.6°C 43.1°F6.2°C 47% Calm Calm -- 29.58 in1001.7 mb 0.00 in0.0 mm 0.00 in/hr0.0 mm/hr 0.00 in0.0 mm
03:12 AM 63.9°F17.7°C 43.3°F6.3°C 47% Calm Calm -- 29.58 in1001.7 mb 0.00 in0.0 mm 0.00 in/hr0.0 mm/hr 0.00 in0.0 mm
03:07 AM 63.9°F17.7°C 43.3°F6.3°C 47% 1.0 mph WNW1.6 kmh WNW 1.0 mph1.6 kmh 29.58 in1001.7 mb 0.00 in0.0 mm 0.00 in/hr0.0 mm/hr 0.00 in0.0 mm
03:02 AM 63.7°F17.6°C 43.1°F6.2°C 47% Calm Calm -- 29.58 in1001.7 mb 0.00 in0.0 mm 0.00 in/hr0.0 mm/hr 0.00 in0.0 mm
02:57 AM 63.7°F17.6°C 43.1°F6.2°C 47% Calm Calm -- 29.59 in1002.0 mb 0.00 in0.0 mm 0.00 in/hr0.0 mm/hr 0.00 in0.0 mm
02:52 AM 63.7°F17.6°C 43.1°F6.2°C 47% Calm Calm -- 29.59 in1002.0 mb 0.00 in0.0 mm 0.00 in/hr0.0 mm/hr 0.00 in0.0 mm
02:47 AM 63.5°F17.5°C 42.9°F6.1°C 47% Calm Calm 1.0 mph1.6 kmh 29.59 in1002.0 mb 0.00 in0.0 mm 0.00 in/hr0.0 mm/hr 0.00 in0.0 mm
02:42 AM 63.7°F17.6°C 43.1°F6.2°C 47% Calm Calm 2.0 mph3.2 kmh 29.59 in1002.0 mb 0.00 in0.0 mm 0.00 in/hr0.0 mm/hr 0.00 in0.0 mm
02:37 AM 63.9°F17.7°C 43.3°F6.3°C 47% Calm Calm -- 29.59 in1002.0 mb 0.00 in0.0 mm 0.00 in/hr0.0 mm/hr 0.00 in0.0 mm
02:32 AM 64.2°F17.9°C 43.5°F6.4°C 47% Calm Calm 1.0 mph1.6 kmh 29.59 in1002.0 mb 0.00 in0.0 mm 0.00 in/hr0.0 mm/hr 0.00 in0.0 mm
02:27 AM 64.3°F17.9°C 43.6°F6.4°C 47% Calm Calm 1.0 mph1.6 kmh 29.59 in1002.0 mb 0.00 in0.0 mm 0.00 in/hr0.0 mm/hr 0.00 in0.0 mm
02:22 AM 64.5°F18.1°C 43.3°F6.3°C 46% Calm Calm 2.0 mph3.2 kmh 29.59 in1002.0 mb 0.00 in0.0 mm 0.00 in/hr0.0 mm/hr 0.00 in0.0 mm
02:17 AM 64.7°F18.2°C 43.4°F6.3°C 46% Calm Calm -- 29.59 in1002.0 mb 0.00 in0.0 mm 0.00 in/hr0.0 mm/hr 0.00 in0.0 mm
02:12 AM 65.0°F18.3°C 43.7°F6.5°C 46% Calm Calm 3.0 mph4.8 kmh 29.59 in1002.0 mb 0.00 in0.0 mm 0.00 in/hr0.0 mm/hr 0.00 in0.0 mm
02:07 AM 65.0°F18.3°C 43.7°F6.5°C 46% 1.0 mph WNW1.6 kmh WNW 3.0 mph4.8 kmh 29.59 in1002.0 mb 0.00 in0.0 mm 0.00 in/hr0.0 mm/hr 0.00 in0.0 mm
02:02 AM 65.0°F18.3°C 44.3°F6.8°C 47% 1.0 mph WNW1.6 kmh WNW 3.0 mph4.8 kmh 29.59 in1002.0 mb 0.00 in0.0 mm 0.00 in/hr0.0 mm/hr 0.00 in0.0 mm
01:57 AM 65.0°F18.3°C 44.3°F6.8°C 47% Calm Calm -- 29.59 in1002.0 mb 0.00 in0.0 mm 0.00 in/hr0.0 mm/hr 0.00 in0.0 mm
01:52 AM 65.0°F18.3°C 44.3°F6.8°C 47% Calm Calm -- 29.59 in1002.0 mb 0.00 in0.0 mm 0.00 in/hr0.0 mm/hr 0.00 in0.0 mm
01:47 AM 65.2°F18.4°C 44.5°F6.9°C 47% Calm Calm -- 29.59 in1002.0 mb 0.00 in0.0 mm 0.00 in/hr0.0 mm/hr 0.00 in0.0 mm
01:42 AM 65.2°F18.4°C 44.5°F6.9°C 47% Calm Calm -- 29.59 in1002.0 mb 0.00 in0.0 mm 0.00 in/hr0.0 mm/hr 0.00 in0.0 mm
01:37 AM 65.3°F18.5°C 44.0°F6.7°C 46% Calm Calm -- 29.59 in1002.0 mb 0.00 in0.0 mm 0.00 in/hr0.0 mm/hr 0.00 in0.0 mm
01:32 AM 65.6°F18.7°C 44.3°F6.8°C 46% Calm Calm -- 29.59 in1002.0 mb 0.00 in0.0 mm 0.00 in/hr0.0 mm/hr 0.00 in0.0 mm
01:27 AM 65.6°F18.7°C 43.7°F6.5°C 45% Calm Calm -- 29.59 in1002.0 mb 0.00 in0.0 mm 0.00 in/hr0.0 mm/hr 0.00 in0.0 mm
01:22 AM 65.8°F18.8°C 43.9°F6.6°C 45% Calm Calm -- 29.59 in1002.0 mb 0.00 in0.0 mm 0.00 in/hr0.0 mm/hr 0.00 in0.0 mm
01:17 AM 66.1°F18.9°C 44.1°F6.7°C 45% Calm Calm -- 29.59 in1002.0 mb 0.00 in0.0 mm 0.00 in/hr0.0 mm/hr 0.00 in0.0 mm
01:12 AM 66.3°F19.1°C 43.7°F6.5°C 44% Calm Calm -- 29.59 in1002.0 mb 0.00 in0.0 mm 0.00 in/hr0.0 mm/hr 0.00 in0.0 mm
01:07 AM 66.4°F19.1°C 43.8°F6.6°C 44% Calm Calm -- 29.59 in1002.0 mb 0.00 in0.0 mm 0.00 in/hr0.0 mm/hr 0.00 in0.0 mm
01:02 AM 66.6°F19.2°C 44.0°F6.7°C 44% Calm Calm -- 29.59 in1002.0 mb 0.00 in0.0 mm 0.00 in/hr0.0 mm/hr 0.00 in0.0 mm
12:57 AM 66.6°F19.2°C 44.0°F6.7°C 44% Calm Calm -- 29.59 in1002.0 mb 0.00 in0.0 mm 0.00 in/hr0.0 mm/hr 0.00 in0.0 mm
12:52 AM 66.8°F19.3°C 43.6°F6.4°C 43% Calm Calm -- 29.59 in1002.0 mb 0.00 in0.0 mm 0.00 in/hr0.0 mm/hr 0.00 in0.0 mm
12:47 AM 66.9°F19.4°C 43.7°F6.5°C 43% Calm Calm -- 29.59 in1002.0 mb 0.00 in0.0 mm 0.00 in/hr0.0 mm/hr 0.00 in0.0 mm
12:42 AM 67.3°F19.6°C 44.0°F6.7°C 43% Calm Calm -- 29.59 in1002.0 mb 0.00 in0.0 mm 0.00 in/hr0.0 mm/hr 0.00 in0.0 mm
12:37 AM 67.4°F19.7°C 43.5°F6.4°C 42% Calm Calm -- 29.59 in1002.0 mb 0.00 in0.0 mm 0.00 in/hr0.0 mm/hr 0.00 in0.0 mm
12:32 AM 67.8°F19.9°C 43.2°F6.2°C 41% 1.0 mph WNW1.6 kmh WNW 3.0 mph4.8 kmh 29.59 in1002.0 mb 0.00 in0.0 mm 0.00 in/hr0.0 mm/hr 0.00 in0.0 mm
12:27 AM 67.9°F19.9°C 43.3°F6.3°C 41% Calm Calm 3.0 mph4.8 kmh 29.58 in1001.7 mb 0.00 in0.0 mm 0.00 in/hr0.0 mm/hr 0.00 in0.0 mm
12:22 AM 68.1°F20.1°C 43.5°F6.4°C 41% 2.0 mph WNW3.2 kmh WNW 3.0 mph4.8 kmh 29.58 in1001.7 mb 0.00 in0.0 mm 0.00 in/hr0.0 mm/hr 0.00 in0.0 mm
12:17 AM 68.1°F20.1°C 43.5°F6.4°C 41% 2.0 mph WNW3.2 kmh WNW 3.0 mph4.8 kmh 29.58 in1001.7 mb 0.00 in0.0 mm 0.00 in/hr0.0 mm/hr 0.00 in0.0 mm
12:12 AM 68.3°F20.2°C 43.7°F6.5°C 41% 2.0 mph WNW3.2 kmh WNW 3.0 mph4.8 kmh 29.59 in1002.0 mb 0.00 in0.0 mm 0.00 in/hr0.0 mm/hr 0.00 in0.0 mm
12:07 AM 68.4°F20.2°C 43.8°F6.6°C 41% 2.0 mph WNW3.2 kmh WNW 3.0 mph4.8 kmh 29.59 in1002.0 mb 0.00 in0.0 mm 0.00 in/hr0.0 mm/hr 0.00 in0.0 mm
12:02 AM 68.6°F20.3°C 44.0°F6.7°C 41% Calm Calm -- 29.59 in1002.0 mb 0.00 in0.0 mm 0.00 in/hr0.0 mm/hr 0.00 in0.0 mm